PSEOF SBSI-SBCN
Flight info
| Callsign | PSEOF |
|---|---|
| Flight time | N/A |
| Altitude | 45000 |
| Route | OBGAT UZ87 OPMUS UZ40 DOSRO UM417 ESDEV UP793 MOPIM UZ8 DAKEM DCT ILPAV |
| Aircraft | C750/M-SBDE3FGHRWXY/S |
Departure
| Time | 2026-04-27 18:56 |
|---|---|
| Airport | Presidente João Batista Figueiredo Airport (SBSI) |
Arrival
| Time | N/A |
|---|---|
| Airport | Nelson Ribeiro Guimarães Airport (SBCN) |
| Time | Latitude | Longitude | Altitude | Speed | Heading |
|---|---|---|---|---|---|
| 2026-04-27 18:42 | -11.87963 | -55.58267 | 1246 ft | 0 kts | 16° |
| 2026-04-27 18:46 | -11.87964 | -55.58267 | 1246 ft | 0 kts | 16° |
| 2026-04-27 18:53 | -11.87940 | -55.58276 | 1247 ft | 8 kts | 302° |
| 2026-04-27 18:54 | -11.87903 | -55.58304 | 1239 ft | 9 kts | 4° |
| 2026-04-27 18:54 | -11.87845 | -55.58335 | 1239 ft | 11 kts | 288° |
| 2026-04-27 18:54 | -11.87842 | -55.58349 | 1249 ft | 0 kts | 282° |
| 2026-04-27 18:54 | -11.87842 | -55.58351 | 1249 ft | 1 kts | 282° |
| 2026-04-27 18:55 | -11.87832 | -55.58389 | 1236 ft | 11 kts | 286° |
| 2026-04-27 18:55 | -11.87853 | -55.58456 | 1236 ft | 14 kts | 195° |
| 2026-04-27 18:55 | -11.88016 | -55.58499 | 1238 ft | 54 kts | 194° |
| 2026-04-27 18:55 | -11.88753 | -55.58695 | 1249 ft | 151 kts | 193° |
| 2026-04-27 18:56 | -11.89776 | -55.58949 | 1886 ft | 149 kts | 190° |
| 2026-04-27 18:56 | -11.90806 | -55.58804 | 2388 ft | 167 kts | 142° |
| 2026-04-27 18:56 | -11.91256 | -55.57693 | 2814 ft | 186 kts | 87° |
| 2026-04-27 18:56 | -11.90957 | -55.56321 | 3271 ft | 211 kts | 72° |
| 2026-04-27 18:57 | -11.90124 | -55.54993 | 3830 ft | 235 kts | 50° |
| 2026-04-27 18:57 | -11.89057 | -55.53628 | 4460 ft | 257 kts | 56° |
| 2026-04-27 18:57 | -11.88208 | -55.51980 | 5341 ft | 262 kts | 68° |
| 2026-04-27 18:57 | -11.87546 | -55.50236 | 6319 ft | 266 kts | 69° |
| 2026-04-27 18:58 | -11.86819 | -55.48477 | 7214 ft | 271 kts | 66° |
| 2026-04-27 18:58 | -11.86296 | -55.47314 | 7883 ft | 273 kts | 66° |
| 2026-04-27 18:58 | -11.85232 | -55.44927 | 9272 ft | 279 kts | 66° |
| 2026-04-27 18:58 | -11.84444 | -55.43100 | 10196 ft | 284 kts | 67° |
| 2026-04-27 18:59 | -11.83613 | -55.41178 | 10551 ft | 309 kts | 67° |
| 2026-04-27 18:59 | -11.82698 | -55.39084 | 10702 ft | 337 kts | 66° |
| 2026-04-27 18:59 | -11.81714 | -55.36836 | 11106 ft | 351 kts | 66° |
| 2026-04-27 18:59 | -11.80717 | -55.34554 | 11929 ft | 353 kts | 66° |
| 2026-04-27 19:00 | -11.79709 | -55.32242 | 12602 ft | 359 kts | 67° |
| 2026-04-27 19:00 | -11.78685 | -55.29894 | 13323 ft | 364 kts | 67° |